createdAt,value
2023-07-14T00:00:38.582Z,22.40
2023-07-14T00:03:04.880Z,22.44
2023-07-14T00:05:31.224Z,22.30
2023-07-14T00:07:57.496Z,22.08
2023-07-14T00:10:23.935Z,22.07
2023-07-14T00:12:50.253Z,22.12
2023-07-14T00:15:16.584Z,22.16
2023-07-14T00:17:42.882Z,22.06
2023-07-14T00:20:09.241Z,22.25
2023-07-14T00:22:35.725Z,22.16
2023-07-14T00:25:02.069Z,22.23
2023-07-14T00:27:28.488Z,22.07
2023-07-14T00:29:54.996Z,22.06
2023-07-14T00:32:21.456Z,21.83
2023-07-14T00:34:47.808Z,22.00
2023-07-14T00:37:14.181Z,21.86
2023-07-14T00:39:40.643Z,21.79
2023-07-14T00:42:06.954Z,21.77
2023-07-14T00:44:33.242Z,21.89
2023-07-14T00:46:59.668Z,21.90
2023-07-14T00:49:26.078Z,21.81
2023-07-14T00:51:52.376Z,21.75
2023-07-14T00:54:18.675Z,21.77
2023-07-14T00:56:45.001Z,21.90
2023-07-14T00:59:11.515Z,21.72
2023-07-14T01:01:37.847Z,21.88
2023-07-14T01:04:04.472Z,21.79
2023-07-14T01:06:30.940Z,21.77
2023-07-14T01:08:57.307Z,21.82
2023-07-14T01:11:23.632Z,21.69
2023-07-14T01:13:50.050Z,21.86
2023-07-14T01:16:16.413Z,21.70
2023-07-14T01:18:43.046Z,21.66
2023-07-14T01:21:09.619Z,21.76
2023-07-14T01:23:35.967Z,21.51
2023-07-14T01:26:02.243Z,21.53
2023-07-14T01:28:28.516Z,21.50
2023-07-14T01:30:54.934Z,21.48
2023-07-14T01:33:21.250Z,21.52
2023-07-14T01:35:47.541Z,21.60
2023-07-14T01:38:14.056Z,21.61
2023-07-14T01:40:40.721Z,21.58
2023-07-14T01:43:07.094Z,21.43
2023-07-14T01:45:33.797Z,21.48
2023-07-14T01:48:00.263Z,21.59
2023-07-14T01:50:26.703Z,21.52
2023-07-14T01:52:53.181Z,21.43
2023-07-14T01:55:19.668Z,21.44
2023-07-14T01:57:46.105Z,21.40
2023-07-14T02:00:12.605Z,21.41
2023-07-14T02:02:38.973Z,21.52
2023-07-14T02:05:05.293Z,21.44
2023-07-14T02:07:31.745Z,21.30
2023-07-14T02:09:58.055Z,21.29
2023-07-14T02:12:24.533Z,21.26
2023-07-14T02:14:50.871Z,21.34
2023-07-14T02:17:17.489Z,21.28
2023-07-14T02:19:43.897Z,21.38
2023-07-14T02:22:10.388Z,21.42
2023-07-14T02:24:36.654Z,21.36
2023-07-14T02:27:03.046Z,21.38
2023-07-14T02:29:29.366Z,21.38
2023-07-14T02:31:55.785Z,21.44
2023-07-14T02:34:22.119Z,21.47
2023-07-14T02:36:48.399Z,21.36
2023-07-14T02:39:14.712Z,21.30
2023-07-14T02:41:40.980Z,21.28
2023-07-14T02:44:07.352Z,21.35
2023-07-14T02:46:33.663Z,21.23
2023-07-14T02:49:00.149Z,21.33
2023-07-14T02:51:26.619Z,21.42
2023-07-14T02:53:52.899Z,21.33
2023-07-14T02:56:19.171Z,21.22
2023-07-14T02:58:45.570Z,21.38
2023-07-14T03:01:12.104Z,21.25
2023-07-14T03:03:38.858Z,21.30
2023-07-14T03:06:05.495Z,21.29
2023-07-14T03:08:31.940Z,21.20
2023-07-14T03:10:58.293Z,21.27
2023-07-14T03:13:24.910Z,21.11
2023-07-14T03:15:51.187Z,21.22
2023-07-14T03:18:17.593Z,21.28
2023-07-14T03:20:44.058Z,21.25
2023-07-14T03:23:10.440Z,21.28
2023-07-14T03:25:36.755Z,21.09
2023-07-14T03:28:03.275Z,21.08
2023-07-14T03:30:29.584Z,21.17
2023-07-14T03:32:55.969Z,21.13
2023-07-14T03:35:22.310Z,21.15
2023-07-14T03:37:48.633Z,21.18
2023-07-14T03:40:15.066Z,21.26
2023-07-14T03:42:41.558Z,21.17
2023-07-14T03:45:07.860Z,21.10
2023-07-14T03:47:34.286Z,20.98
2023-07-14T03:50:00.710Z,21.06
2023-07-14T03:52:27.203Z,21.01
2023-07-14T03:54:53.497Z,21.06
2023-07-14T03:57:19.803Z,21.07
2023-07-14T03:59:46.134Z,21.12
2023-07-14T04:02:12.686Z,21.04
2023-07-14T04:04:39.053Z,20.90
2023-07-14T04:07:05.544Z,21.01
2023-07-14T04:09:32.029Z,20.92
2023-07-14T04:11:58.430Z,20.98
2023-07-14T04:14:24.980Z,21.00
2023-07-14T04:16:51.653Z,20.94
2023-07-14T04:19:18.251Z,20.86
2023-07-14T04:21:44.546Z,20.83
2023-07-14T04:24:10.899Z,21.04
2023-07-14T04:26:37.201Z,20.94
2023-07-14T04:29:03.645Z,20.97
2023-07-14T04:31:30.071Z,20.92
2023-07-14T04:33:56.518Z,21.00
2023-07-14T04:36:22.849Z,20.91
2023-07-14T04:38:49.167Z,20.88
2023-07-14T04:41:15.478Z,20.95
2023-07-14T04:43:41.988Z,20.95
2023-07-14T04:46:08.343Z,20.96
2023-07-14T04:48:34.680Z,20.88
2023-07-14T04:51:03.550Z,20.90
2023-07-14T04:53:29.879Z,20.89
2023-07-14T04:55:56.293Z,20.98
2023-07-14T04:58:22.569Z,20.95
2023-07-14T05:00:49.001Z,20.91
2023-07-14T05:03:15.555Z,20.85
2023-07-14T05:05:41.924Z,20.96
2023-07-14T05:08:08.251Z,20.90
2023-07-14T05:10:34.653Z,20.85
2023-07-14T05:13:01.050Z,20.84
2023-07-14T05:15:27.650Z,20.89
2023-07-14T05:17:54.011Z,20.84
2023-07-14T05:20:20.342Z,20.85
2023-07-14T05:22:46.849Z,20.81
2023-07-14T05:25:13.242Z,20.76
2023-07-14T05:27:39.570Z,20.75
2023-07-14T05:30:05.980Z,20.85
2023-07-14T05:32:32.395Z,20.88
2023-07-14T05:35:04.063Z,20.89
2023-07-14T05:37:30.361Z,20.94
2023-07-14T05:39:56.769Z,20.92
2023-07-14T05:42:23.115Z,20.96
2023-07-14T05:44:49.474Z,21.01
2023-07-14T05:47:16.016Z,20.97
2023-07-14T05:49:42.385Z,21.06
2023-07-14T05:52:08.667Z,21.05
2023-07-14T05:54:35.138Z,21.02
2023-07-14T05:57:01.411Z,21.05
2023-07-14T05:59:27.875Z,21.05
2023-07-14T06:01:54.195Z,21.15
2023-07-14T06:04:20.509Z,21.09
2023-07-14T06:06:46.967Z,21.19
2023-07-14T06:09:13.440Z,21.17
2023-07-14T06:11:39.711Z,21.27
2023-07-14T06:14:06.163Z,21.37
2023-07-14T06:16:32.693Z,21.32
2023-07-14T06:18:59.095Z,21.42
2023-07-14T06:21:25.378Z,21.43
2023-07-14T06:23:51.861Z,21.63
2023-07-14T06:26:18.268Z,21.69
2023-07-14T06:28:44.806Z,21.87
2023-07-14T06:31:11.353Z,21.82
2023-07-14T06:33:37.721Z,21.90
2023-07-14T06:36:04.192Z,22.01
2023-07-14T06:38:30.504Z,22.06
2023-07-14T06:40:57.156Z,22.11
2023-07-14T06:43:23.442Z,22.26
2023-07-14T06:45:49.820Z,22.34
2023-07-14T06:48:16.338Z,22.34
2023-07-14T06:50:42.842Z,22.31
2023-07-14T06:53:09.180Z,22.35
2023-07-14T06:55:35.722Z,22.48
2023-07-14T06:58:02.002Z,22.55
2023-07-14T07:00:28.459Z,22.54
2023-07-14T07:02:57.328Z,22.45
2023-07-14T07:05:23.837Z,22.56
2023-07-14T07:07:50.242Z,22.63
2023-07-14T07:10:16.811Z,22.59
2023-07-14T07:12:43.300Z,22.66
2023-07-14T07:15:09.645Z,22.70
2023-07-14T07:17:35.986Z,22.77
2023-07-14T07:20:02.340Z,22.77
2023-07-14T07:22:28.724Z,22.85
2023-07-14T07:24:55.019Z,22.90
2023-07-14T07:27:21.442Z,22.95
2023-07-14T07:29:47.871Z,22.96
2023-07-14T07:32:16.544Z,22.99
2023-07-14T07:34:42.996Z,23.05
2023-07-14T07:37:09.286Z,23.06
2023-07-14T07:39:35.736Z,23.13
2023-07-14T07:42:02.159Z,23.20
2023-07-14T07:44:30.753Z,23.24
2023-07-14T07:46:58.155Z,23.28
2023-07-14T07:49:27.543Z,23.31
2023-07-14T07:51:53.876Z,23.32
2023-07-14T07:54:20.227Z,23.37
2023-07-14T07:56:46.552Z,23.43
2023-07-14T07:59:12.897Z,23.43
2023-07-14T08:01:39.217Z,23.41
2023-07-14T08:04:05.871Z,23.48
2023-07-14T08:06:32.640Z,23.51
2023-07-14T08:08:59.032Z,23.68
2023-07-14T08:11:25.310Z,23.75
2023-07-14T08:13:51.624Z,23.83
2023-07-14T08:16:18.158Z,23.97
2023-07-14T08:18:44.735Z,23.97
2023-07-14T08:21:11.206Z,24.09
2023-07-14T08:23:37.636Z,24.21
2023-07-14T08:26:03.908Z,24.29
2023-07-14T08:28:30.242Z,24.41
2023-07-14T08:30:56.604Z,24.52
2023-07-14T08:33:22.867Z,24.56
2023-07-14T08:35:49.153Z,24.61
2023-07-14T08:38:15.507Z,24.72
2023-07-14T08:40:42.014Z,24.81
2023-07-14T08:43:08.458Z,24.88
2023-07-14T08:45:34.989Z,24.94
2023-07-14T08:48:01.388Z,25.04
2023-07-14T08:50:27.792Z,25.15
2023-07-14T08:52:54.118Z,25.16
2023-07-14T08:55:20.400Z,25.27
2023-07-14T08:57:46.666Z,25.36
2023-07-14T09:00:12.979Z,25.50
2023-07-14T09:02:39.371Z,25.52
2023-07-14T09:05:05.791Z,25.60
2023-07-14T09:07:32.269Z,25.71
2023-07-14T09:10:01.022Z,25.70
2023-07-14T09:12:27.421Z,25.81
2023-07-14T09:14:53.746Z,25.88
2023-07-14T09:17:20.079Z,25.91
2023-07-14T09:19:46.570Z,26.08
2023-07-14T09:22:15.068Z,26.14
2023-07-14T09:24:41.324Z,26.35
2023-07-14T09:27:07.766Z,26.41
2023-07-14T09:29:34.222Z,26.51
2023-07-14T09:32:00.665Z,26.63
2023-07-14T09:34:27.198Z,26.69
2023-07-14T09:36:53.622Z,26.76
2023-07-14T09:39:19.890Z,26.85
2023-07-14T09:41:46.929Z,26.95
2023-07-14T09:44:13.555Z,27.05
2023-07-14T09:46:39.942Z,27.13
2023-07-14T09:49:06.234Z,27.24
2023-07-14T09:51:32.553Z,27.36
2023-07-14T09:53:58.956Z,27.52
2023-07-14T09:56:25.267Z,27.67
2023-07-14T09:58:51.550Z,27.75
2023-07-14T10:01:18.097Z,27.87
2023-07-14T10:03:45.888Z,27.95
2023-07-14T10:06:12.774Z,28.04
2023-07-14T10:08:39.096Z,28.14
2023-07-14T10:11:05.486Z,28.28
2023-07-14T10:13:31.992Z,28.37
2023-07-14T10:15:58.327Z,28.47
2023-07-14T10:18:24.768Z,28.57
2023-07-14T10:20:51.334Z,28.64
2023-07-14T10:23:17.896Z,28.79
2023-07-14T10:25:44.371Z,28.89
2023-07-14T10:28:10.705Z,29.00
2023-07-14T10:30:37.047Z,29.16
2023-07-14T10:33:03.554Z,29.32
2023-07-14T10:35:32.347Z,29.35
2023-07-14T10:37:58.821Z,29.46
2023-07-14T10:40:25.136Z,29.52
2023-07-14T10:42:58.819Z,29.61
2023-07-14T10:45:25.284Z,29.80
2023-07-14T10:47:51.637Z,29.93
2023-07-14T10:50:18.206Z,30.10
2023-07-14T10:52:44.631Z,30.20
2023-07-14T10:55:10.895Z,30.26
2023-07-14T10:57:37.326Z,30.43
2023-07-14T11:00:03.826Z,30.50
2023-07-14T11:02:30.168Z,30.60
2023-07-14T11:04:58.469Z,30.66
2023-07-14T11:07:25.899Z,30.78
2023-07-14T11:09:55.267Z,30.88
2023-07-14T11:12:21.614Z,31.00
2023-07-14T11:14:48.254Z,31.08
2023-07-14T11:17:17.620Z,31.22
2023-07-14T11:19:47.041Z,31.31
2023-07-14T11:22:21.262Z,31.35
2023-07-14T11:24:48.461Z,31.43
2023-07-14T11:27:15.088Z,31.52
2023-07-14T11:29:41.402Z,31.62
2023-07-14T11:32:07.976Z,31.73
2023-07-14T11:34:34.589Z,31.87
2023-07-14T11:37:00.972Z,31.88
2023-07-14T11:39:30.001Z,31.93
2023-07-14T11:41:56.586Z,32.08
2023-07-14T11:44:22.990Z,32.14
2023-07-14T11:46:49.668Z,32.15
2023-07-14T11:49:16.194Z,32.17
2023-07-14T11:51:42.624Z,32.30
2023-07-14T11:54:09.094Z,32.39
2023-07-14T11:56:35.570Z,32.48
2023-07-14T11:59:04.746Z,32.62
2023-07-14T12:01:31.246Z,32.68
2023-07-14T12:03:57.775Z,32.73
2023-07-14T12:06:24.252Z,32.82
2023-07-14T12:08:50.561Z,32.93
2023-07-14T12:11:27.252Z,33.08
2023-07-14T12:14:01.449Z,33.24
2023-07-14T12:16:27.811Z,33.31
2023-07-14T12:18:54.280Z,33.35
2023-07-14T12:21:20.576Z,33.41
2023-07-14T12:23:46.895Z,33.52
2023-07-14T12:26:13.424Z,33.62
2023-07-14T12:28:39.949Z,33.74
2023-07-14T12:31:06.433Z,33.89
2023-07-14T12:33:32.832Z,34.02
2023-07-14T12:35:59.215Z,34.15
2023-07-14T12:38:25.489Z,34.18
2023-07-14T12:40:51.792Z,34.22
2023-07-14T12:43:18.278Z,34.30
2023-07-14T12:45:44.830Z,34.33
2023-07-14T12:48:11.175Z,34.32
2023-07-14T12:50:37.495Z,34.42
2023-07-14T12:53:03.940Z,34.43
2023-07-14T12:55:30.277Z,34.49
2023-07-14T12:57:56.593Z,34.60
2023-07-14T13:00:23.066Z,34.76
2023-07-14T13:02:49.364Z,34.86
2023-07-14T13:05:19.086Z,34.90
2023-07-14T13:07:45.724Z,34.93
2023-07-14T13:10:12.018Z,34.99
2023-07-14T13:12:38.385Z,34.99
2023-07-14T13:15:04.907Z,35.05
2023-07-14T13:17:31.315Z,35.10
2023-07-14T13:19:57.626Z,35.28
2023-07-14T13:22:24.102Z,35.34
2023-07-14T13:24:50.415Z,35.39
2023-07-14T13:27:16.726Z,35.44
2023-07-14T13:29:43.220Z,35.44
2023-07-14T13:32:09.723Z,35.48
2023-07-14T13:34:36.016Z,35.54
2023-07-14T13:37:02.379Z,35.56
2023-07-14T13:39:28.895Z,35.61
2023-07-14T13:41:55.340Z,35.73
2023-07-14T13:44:21.650Z,35.89
2023-07-14T13:46:48.140Z,35.99
2023-07-14T13:49:14.587Z,35.99
2023-07-14T13:51:40.913Z,36.00
2023-07-14T13:54:07.265Z,35.99
2023-07-14T13:56:33.733Z,36.02
2023-07-14T13:59:00.172Z,36.07
2023-07-14T14:01:26.607Z,36.14
2023-07-14T14:03:53.155Z,36.15
2023-07-14T14:06:19.838Z,36.20
2023-07-14T14:08:49.320Z,36.36
2023-07-14T14:11:18.023Z,36.42
2023-07-14T14:13:44.471Z,36.47
2023-07-14T14:16:13.386Z,36.58
2023-07-14T14:18:40.098Z,36.64
2023-07-14T14:21:06.598Z,36.71
2023-07-14T14:23:33.028Z,36.80
2023-07-14T14:25:59.323Z,36.74
2023-07-14T14:28:25.745Z,36.71
2023-07-14T14:30:52.100Z,36.73
2023-07-14T14:33:18.438Z,36.85
2023-07-14T14:35:44.955Z,36.93
2023-07-14T14:38:11.287Z,37.02
2023-07-14T14:40:37.624Z,37.10
2023-07-14T14:43:04.076Z,37.14
2023-07-14T14:45:30.562Z,37.18
2023-07-14T14:47:56.909Z,37.32
2023-07-14T14:50:23.337Z,37.38
2023-07-14T14:52:49.787Z,37.42
2023-07-14T14:55:16.064Z,37.51
2023-07-14T14:57:42.384Z,37.56
2023-07-14T15:00:08.911Z,37.55
2023-07-14T15:02:35.403Z,37.50
2023-07-14T15:05:04.344Z,37.50
2023-07-14T15:07:30.813Z,37.55
2023-07-14T15:09:57.076Z,37.55
2023-07-14T15:12:23.381Z,37.59
2023-07-14T15:14:49.762Z,37.59
2023-07-14T15:17:16.260Z,37.63
2023-07-14T15:19:42.573Z,37.71
2023-07-14T15:22:08.943Z,37.76
2023-07-14T15:24:35.418Z,37.81
2023-07-14T15:27:04.093Z,37.82
2023-07-14T15:29:30.534Z,37.80
2023-07-14T15:31:56.940Z,37.83
2023-07-14T15:34:23.329Z,37.82
2023-07-14T15:36:49.609Z,37.83
2023-07-14T15:39:17.346Z,37.87
2023-07-14T15:41:43.763Z,37.88
2023-07-14T15:44:10.150Z,37.93
2023-07-14T15:46:36.681Z,37.93
2023-07-14T15:49:02.980Z,37.94
2023-07-14T15:51:29.430Z,37.91
2023-07-14T15:53:56.092Z,37.90
2023-07-14T15:56:22.396Z,37.95
2023-07-14T15:58:48.674Z,37.96
2023-07-14T16:01:27.465Z,37.94
2023-07-14T16:03:56.140Z,37.96
2023-07-14T16:06:22.512Z,37.97
2023-07-14T16:08:48.900Z,38.03
2023-07-14T16:11:15.336Z,38.05
2023-07-14T16:13:41.609Z,38.04
2023-07-14T16:16:08.126Z,38.00
2023-07-14T16:18:34.569Z,37.98
2023-07-14T16:21:00.972Z,37.96
2023-07-14T16:23:27.291Z,37.93
2023-07-14T16:25:53.697Z,37.88
2023-07-14T16:28:20.239Z,37.88
2023-07-14T16:30:46.656Z,37.86
2023-07-14T16:33:12.929Z,37.85
2023-07-14T16:35:39.384Z,37.82
2023-07-14T16:38:07.343Z,37.82
2023-07-14T16:40:34.064Z,37.82
2023-07-14T16:43:00.492Z,37.78
2023-07-14T16:45:26.773Z,37.78
2023-07-14T16:47:53.123Z,37.79
2023-07-14T16:50:19.725Z,37.79
2023-07-14T16:52:46.209Z,37.78
2023-07-14T16:55:12.536Z,37.81
2023-07-14T16:57:38.905Z,37.79
2023-07-14T17:00:05.374Z,37.73
2023-07-14T17:02:31.701Z,37.72
2023-07-14T17:04:58.138Z,37.68
2023-07-14T17:07:24.801Z,37.67
2023-07-14T17:09:51.237Z,37.62
2023-07-14T17:12:17.735Z,37.58
2023-07-14T17:14:44.165Z,37.56
2023-07-14T17:17:10.679Z,37.59
2023-07-14T17:19:37.175Z,37.55
2023-07-14T17:22:03.486Z,37.53
2023-07-14T17:24:29.793Z,37.50
2023-07-14T17:26:56.394Z,37.48
2023-07-14T17:29:22.727Z,37.47
2023-07-14T17:31:49.341Z,37.44
2023-07-14T17:34:15.680Z,37.42
2023-07-14T17:36:42.000Z,37.40
2023-07-14T17:39:08.476Z,37.38
2023-07-14T17:41:34.886Z,37.35
2023-07-14T17:44:01.237Z,37.32
2023-07-14T17:46:27.702Z,37.29
2023-07-14T17:48:54.111Z,37.25
2023-07-14T17:51:20.453Z,37.20
2023-07-14T17:53:46.773Z,37.19
2023-07-14T17:56:13.263Z,37.16
2023-07-14T17:58:40.004Z,37.11
2023-07-14T18:01:06.487Z,37.08
2023-07-14T18:03:32.800Z,37.01
2023-07-14T18:05:59.154Z,36.93
2023-07-14T18:08:25.660Z,36.84
2023-07-14T18:10:51.988Z,36.74
2023-07-14T18:13:18.363Z,36.64
2023-07-14T18:15:44.797Z,36.53
2023-07-14T18:18:11.330Z,36.44
2023-07-14T18:20:37.688Z,36.34
2023-07-14T18:23:04.405Z,36.28
2023-07-14T18:25:33.299Z,36.21
2023-07-14T18:28:00.788Z,36.10
2023-07-14T18:30:27.350Z,36.01
2023-07-14T18:32:53.712Z,35.95
2023-07-14T18:35:20.315Z,35.87
2023-07-14T18:37:46.789Z,35.79
2023-07-14T18:40:13.067Z,35.72
2023-07-14T18:42:39.458Z,35.66
2023-07-14T18:45:05.747Z,35.59
2023-07-14T18:47:32.031Z,35.50
2023-07-14T18:49:58.589Z,35.43
2023-07-14T18:52:25.151Z,35.40
2023-07-14T18:54:51.632Z,35.34
2023-07-14T18:57:18.099Z,35.30
2023-07-14T18:59:44.479Z,35.23
2023-07-14T19:02:11.159Z,35.16
2023-07-14T19:04:37.756Z,35.07
2023-07-14T19:07:04.059Z,35.03
2023-07-14T19:09:30.429Z,34.96
2023-07-14T19:11:56.757Z,34.91
2023-07-14T19:14:23.071Z,34.89
2023-07-14T19:16:49.698Z,34.85
2023-07-14T19:19:16.084Z,34.79
2023-07-14T19:21:42.422Z,34.70
2023-07-14T19:24:08.855Z,34.60
2023-07-14T19:26:35.294Z,34.26
2023-07-14T19:29:01.634Z,33.58
2023-07-14T19:31:28.087Z,33.03
2023-07-14T19:33:54.640Z,32.91
2023-07-14T19:36:21.179Z,32.52
2023-07-14T19:38:47.683Z,32.24
2023-07-14T19:41:14.390Z,31.89
2023-07-14T19:43:41.074Z,31.66
2023-07-14T19:46:07.385Z,31.46
2023-07-14T19:48:33.724Z,31.16
2023-07-14T19:51:00.110Z,30.95
2023-07-14T19:53:26.477Z,30.89
2023-07-14T19:55:52.752Z,30.75
2023-07-14T19:58:19.054Z,30.61
2023-07-14T20:00:45.388Z,30.48
2023-07-14T20:03:11.911Z,30.30
2023-07-14T20:05:38.352Z,30.17
2023-07-14T20:08:04.826Z,30.06
2023-07-14T20:10:31.104Z,29.92
2023-07-14T20:12:57.567Z,29.80
2023-07-14T20:15:24.398Z,29.70
2023-07-14T20:17:51.288Z,29.63
2023-07-14T20:20:17.604Z,29.70
2023-07-14T20:22:43.949Z,29.64
2023-07-14T20:25:10.296Z,29.60
2023-07-14T20:27:36.640Z,29.48
2023-07-14T20:30:02.946Z,29.45
2023-07-14T20:32:29.310Z,29.35
2023-07-14T20:34:55.815Z,29.36
2023-07-14T20:37:22.091Z,29.34
2023-07-14T20:39:48.364Z,29.27
2023-07-14T20:42:14.668Z,29.20
2023-07-14T20:44:40.954Z,29.10
2023-07-14T20:47:07.425Z,29.16
2023-07-14T20:49:34.375Z,29.10
2023-07-14T20:52:01.083Z,29.03
2023-07-14T20:54:27.636Z,28.93
2023-07-14T20:56:53.924Z,28.90
2023-07-14T20:59:20.227Z,28.90
2023-07-14T21:01:46.871Z,28.79
2023-07-14T21:04:13.259Z,28.70
2023-07-14T21:06:39.751Z,28.70
2023-07-14T21:09:06.232Z,28.65
2023-07-14T21:11:32.528Z,28.59
2023-07-14T21:13:58.867Z,28.57
2023-07-14T21:16:25.412Z,28.51
2023-07-14T21:18:51.892Z,28.45
2023-07-14T21:21:18.176Z,28.40
2023-07-14T21:23:44.489Z,28.34
2023-07-14T21:26:10.893Z,28.30
2023-07-14T21:28:37.503Z,28.20
2023-07-14T21:31:03.779Z,28.12
2023-07-14T21:33:30.174Z,28.10
2023-07-14T21:35:56.556Z,28.07
2023-07-14T21:38:22.818Z,28.09
2023-07-14T21:40:51.420Z,28.06
2023-07-14T21:43:17.856Z,28.05
2023-07-14T21:45:44.135Z,28.06
2023-07-14T21:48:10.478Z,28.02
2023-07-14T21:50:36.789Z,27.98
2023-07-14T21:53:03.075Z,27.95
2023-07-14T21:55:29.338Z,27.97
2023-07-14T21:57:55.693Z,27.91
2023-07-14T22:00:22.200Z,27.90
2023-07-14T22:02:49.033Z,27.84
2023-07-14T22:05:15.362Z,27.82
2023-07-14T22:07:41.671Z,27.82
2023-07-14T22:10:08.079Z,27.82
2023-07-14T22:12:34.393Z,27.81
2023-07-14T22:15:00.754Z,27.84
2023-07-14T22:17:27.318Z,27.77
2023-07-14T22:19:53.609Z,27.75
2023-07-14T22:22:19.962Z,27.75
2023-07-14T22:24:46.286Z,27.76
2023-07-14T22:27:12.646Z,27.71
2023-07-14T22:29:39.144Z,27.74
2023-07-14T22:32:05.606Z,27.68
2023-07-14T22:34:32.069Z,27.64
2023-07-14T22:36:59.294Z,27.64
2023-07-14T22:39:25.775Z,27.52
2023-07-14T22:41:52.257Z,27.58
2023-07-14T22:44:18.923Z,27.57
2023-07-14T22:46:45.625Z,27.51
2023-07-14T22:49:12.173Z,27.50
2023-07-14T22:51:38.471Z,27.43
2023-07-14T22:54:04.735Z,27.38
2023-07-14T22:56:31.065Z,27.37
2023-07-14T22:58:57.530Z,27.37
2023-07-14T23:01:23.925Z,27.34
2023-07-14T23:03:50.483Z,27.36
2023-07-14T23:06:16.754Z,27.31
2023-07-14T23:08:43.054Z,27.34
2023-07-14T23:11:09.334Z,27.20
2023-07-14T23:13:35.675Z,27.31
2023-07-14T23:16:02.050Z,27.31
2023-07-14T23:18:28.668Z,27.22
2023-07-14T23:20:55.009Z,27.23
2023-07-14T23:23:21.289Z,27.35
2023-07-14T23:25:47.807Z,27.36
2023-07-14T23:28:14.123Z,27.17
2023-07-14T23:30:40.477Z,27.22
2023-07-14T23:33:07.025Z,27.08
2023-07-14T23:35:33.300Z,27.01
2023-07-14T23:37:59.648Z,27.12
2023-07-14T23:40:26.155Z,27.10
2023-07-14T23:42:52.636Z,27.19
2023-07-14T23:45:19.121Z,26.99
2023-07-14T23:47:45.437Z,26.81
2023-07-14T23:50:11.838Z,26.98
2023-07-14T23:52:38.287Z,27.01
2023-07-14T23:55:04.555Z,27.01
2023-07-14T23:57:30.815Z,26.99
2023-07-14T23:59:57.253Z,26.83
